sensor_id;sensor_type;location;lat;lon;timestamp;temperature;humidity
53208;DHT22;39093;52.788;6.940;2023-04-23T00:02:05;9.80;99.90
53208;DHT22;39093;52.788;6.940;2023-04-23T00:04:34;9.70;99.90
53208;DHT22;39093;52.788;6.940;2023-04-23T00:07:04;9.70;99.90
53208;DHT22;39093;52.788;6.940;2023-04-23T00:09:31;9.80;99.90
53208;DHT22;39093;52.788;6.940;2023-04-23T00:11:59;9.80;99.90
53208;DHT22;39093;52.788;6.940;2023-04-23T00:14:27;9.80;99.90
53208;DHT22;39093;52.788;6.940;2023-04-23T00:16:54;9.70;99.90
53208;DHT22;39093;52.788;6.940;2023-04-23T00:19:21;9.70;99.90
53208;DHT22;39093;52.788;6.940;2023-04-23T00:21:48;9.80;99.90
53208;DHT22;39093;52.788;6.940;2023-04-23T00:24:15;9.70;99.90
53208;DHT22;39093;52.788;6.940;2023-04-23T00:26:42;9.70;99.90
53208;DHT22;39093;52.788;6.940;2023-04-23T00:29:09;9.70;99.90
53208;DHT22;39093;52.788;6.940;2023-04-23T00:31:36;9.70;99.90
53208;DHT22;39093;52.788;6.940;2023-04-23T00:34:03;9.70;99.90
53208;DHT22;39093;52.788;6.940;2023-04-23T00:36:30;9.60;99.90
53208;DHT22;39093;52.788;6.940;2023-04-23T00:38:56;9.60;99.90
53208;DHT22;39093;52.788;6.940;2023-04-23T00:41:24;9.60;99.90
53208;DHT22;39093;52.788;6.940;2023-04-23T00:43:53;9.70;99.90
53208;DHT22;39093;52.788;6.940;2023-04-23T00:46:24;9.70;99.90
53208;DHT22;39093;52.788;6.940;2023-04-23T00:48:52;9.70;99.90
53208;DHT22;39093;52.788;6.940;2023-04-23T00:51:23;9.70;99.90
53208;DHT22;39093;52.788;6.940;2023-04-23T00:53:50;9.70;99.90
53208;DHT22;39093;52.788;6.940;2023-04-23T00:56:17;9.60;99.90
53208;DHT22;39093;52.788;6.940;2023-04-23T00:58:44;9.60;99.90
53208;DHT22;39093;52.788;6.940;2023-04-23T01:01:12;9.60;99.90
53208;DHT22;39093;52.788;6.940;2023-04-23T01:03:39;9.50;99.90
53208;DHT22;39093;52.788;6.940;2023-04-23T01:06:08;9.50;99.90
53208;DHT22;39093;52.788;6.940;2023-04-23T01:08:35;9.50;99.90
53208;DHT22;39093;52.788;6.940;2023-04-23T01:11:02;9.50;99.90
53208;DHT22;39093;52.788;6.940;2023-04-23T01:13:29;9.50;99.90
53208;DHT22;39093;52.788;6.940;2023-04-23T01:15:56;9.50;99.90
53208;DHT22;39093;52.788;6.940;2023-04-23T01:18:23;9.40;99.90
53208;DHT22;39093;52.788;6.940;2023-04-23T01:20:51;9.40;99.90
53208;DHT22;39093;52.788;6.940;2023-04-23T01:23:18;9.40;99.90
53208;DHT22;39093;52.788;6.940;2023-04-23T01:25:46;9.40;99.90
53208;DHT22;39093;52.788;6.940;2023-04-23T01:28:16;9.40;99.90
53208;DHT22;39093;52.788;6.940;2023-04-23T01:30:43;9.40;99.90
53208;DHT22;39093;52.788;6.940;2023-04-23T01:33:10;9.40;99.90
53208;DHT22;39093;52.788;6.940;2023-04-23T01:35:39;9.30;99.90
53208;DHT22;39093;52.788;6.940;2023-04-23T01:38:09;9.40;99.90
53208;DHT22;39093;52.788;6.940;2023-04-23T01:40:37;9.40;99.90
53208;DHT22;39093;52.788;6.940;2023-04-23T01:43:04;9.30;99.90
53208;DHT22;39093;52.788;6.940;2023-04-23T01:45:32;9.30;99.90
53208;DHT22;39093;52.788;6.940;2023-04-23T01:47:59;9.30;99.90
53208;DHT22;39093;52.788;6.940;2023-04-23T01:50:26;9.30;99.90
53208;DHT22;39093;52.788;6.940;2023-04-23T01:52:55;9.30;99.90
53208;DHT22;39093;52.788;6.940;2023-04-23T01:55:22;9.30;99.90
53208;DHT22;39093;52.788;6.940;2023-04-23T01:57:49;9.20;99.90
53208;DHT22;39093;52.788;6.940;2023-04-23T02:00:17;9.30;99.90
53208;DHT22;39093;52.788;6.940;2023-04-23T02:02:44;9.20;99.90
53208;DHT22;39093;52.788;6.940;2023-04-23T02:05:15;9.20;99.90
53208;DHT22;39093;52.788;6.940;2023-04-23T02:07:45;9.20;99.90
53208;DHT22;39093;52.788;6.940;2023-04-23T02:10:13;9.20;99.90
53208;DHT22;39093;52.788;6.940;2023-04-23T02:12:41;9.20;99.90
53208;DHT22;39093;52.788;6.940;2023-04-23T02:15:09;9.20;99.90
53208;DHT22;39093;52.788;6.940;2023-04-23T02:17:36;9.10;99.90
53208;DHT22;39093;52.788;6.940;2023-04-23T02:20:07;9.10;99.90
53208;DHT22;39093;52.788;6.940;2023-04-23T02:22:39;9.10;99.90
53208;DHT22;39093;52.788;6.940;2023-04-23T02:25:07;9.10;99.90
53208;DHT22;39093;52.788;6.940;2023-04-23T02:27:34;9.10;99.90
53208;DHT22;39093;52.788;6.940;2023-04-23T02:30:03;9.10;99.90
53208;DHT22;39093;52.788;6.940;2023-04-23T02:32:30;9.10;99.90
53208;DHT22;39093;52.788;6.940;2023-04-23T02:34:57;9.00;99.90
53208;DHT22;39093;52.788;6.940;2023-04-23T02:37:28;9.10;99.90
53208;DHT22;39093;52.788;6.940;2023-04-23T02:39:55;9.00;99.90
53208;DHT22;39093;52.788;6.940;2023-04-23T02:42:21;9.00;99.90
53208;DHT22;39093;52.788;6.940;2023-04-23T02:44:48;9.00;99.90
53208;DHT22;39093;52.788;6.940;2023-04-23T02:47:15;9.00;99.90
53208;DHT22;39093;52.788;6.940;2023-04-23T02:49:42;8.90;99.90
53208;DHT22;39093;52.788;6.940;2023-04-23T02:52:09;8.90;99.90
53208;DHT22;39093;52.788;6.940;2023-04-23T02:54:37;8.90;99.90
53208;DHT22;39093;52.788;6.940;2023-04-23T02:57:04;8.90;99.90
53208;DHT22;39093;52.788;6.940;2023-04-23T02:59:31;8.80;99.90
53208;DHT22;39093;52.788;6.940;2023-04-23T03:01:58;8.80;99.90
53208;DHT22;39093;52.788;6.940;2023-04-23T03:04:25;8.80;99.90
53208;DHT22;39093;52.788;6.940;2023-04-23T03:06:53;8.70;99.90
53208;DHT22;39093;52.788;6.940;2023-04-23T03:09:20;8.70;99.90
53208;DHT22;39093;52.788;6.940;2023-04-23T03:11:47;8.70;99.90
53208;DHT22;39093;52.788;6.940;2023-04-23T03:14:14;8.70;99.90
53208;DHT22;39093;52.788;6.940;2023-04-23T03:16:41;8.70;99.90
53208;DHT22;39093;52.788;6.940;2023-04-23T03:19:08;8.70;99.90
53208;DHT22;39093;52.788;6.940;2023-04-23T03:21:35;8.60;99.90
53208;DHT22;39093;52.788;6.940;2023-04-23T03:24:04;8.60;99.90
53208;DHT22;39093;52.788;6.940;2023-04-23T03:26:31;8.60;99.90
53208;DHT22;39093;52.788;6.940;2023-04-23T03:28:58;8.60;99.90
53208;DHT22;39093;52.788;6.940;2023-04-23T03:31:25;8.50;99.90
53208;DHT22;39093;52.788;6.940;2023-04-23T03:33:52;8.50;99.90
53208;DHT22;39093;52.788;6.940;2023-04-23T03:36:19;8.50;99.90
53208;DHT22;39093;52.788;6.940;2023-04-23T03:38:47;8.40;99.90
53208;DHT22;39093;52.788;6.940;2023-04-23T03:41:14;8.50;99.90
53208;DHT22;39093;52.788;6.940;2023-04-23T03:43:41;8.50;99.90
53208;DHT22;39093;52.788;6.940;2023-04-23T03:46:07;8.40;99.90
53208;DHT22;39093;52.788;6.940;2023-04-23T03:48:34;8.40;99.90
53208;DHT22;39093;52.788;6.940;2023-04-23T03:51:01;8.40;99.90
53208;DHT22;39093;52.788;6.940;2023-04-23T03:53:28;8.40;99.90
53208;DHT22;39093;52.788;6.940;2023-04-23T03:55:55;8.40;99.90
53208;DHT22;39093;52.788;6.940;2023-04-23T03:58:22;8.50;99.90
53208;DHT22;39093;52.788;6.940;2023-04-23T04:00:49;8.40;99.90
53208;DHT22;39093;52.788;6.940;2023-04-23T04:03:16;8.30;99.90
53208;DHT22;39093;52.788;6.940;2023-04-23T04:05:43;8.30;99.90
53208;DHT22;39093;52.788;6.940;2023-04-23T04:08:10;8.30;99.90
53208;DHT22;39093;52.788;6.940;2023-04-23T04:10:37;8.30;99.90
53208;DHT22;39093;52.788;6.940;2023-04-23T04:13:04;8.40;99.90
53208;DHT22;39093;52.788;6.940;2023-04-23T04:15:31;8.30;99.90
53208;DHT22;39093;52.788;6.940;2023-04-23T04:17:58;8.30;99.90
53208;DHT22;39093;52.788;6.940;2023-04-23T04:20:26;8.30;99.90
53208;DHT22;39093;52.788;6.940;2023-04-23T04:22:56;8.30;99.90
53208;DHT22;39093;52.788;6.940;2023-04-23T04:25:23;8.30;99.90
53208;DHT22;39093;52.788;6.940;2023-04-23T04:27:50;8.30;99.90
53208;DHT22;39093;52.788;6.940;2023-04-23T04:30:17;8.30;99.90
53208;DHT22;39093;52.788;6.940;2023-04-23T04:32:44;8.20;99.90
53208;DHT22;39093;52.788;6.940;2023-04-23T04:35:12;8.30;99.90
53208;DHT22;39093;52.788;6.940;2023-04-23T04:37:40;8.30;99.90
53208;DHT22;39093;52.788;6.940;2023-04-23T04:40:07;8.30;99.90
53208;DHT22;39093;52.788;6.940;2023-04-23T04:42:36;8.20;99.90
53208;DHT22;39093;52.788;6.940;2023-04-23T04:45:05;8.30;99.90
53208;DHT22;39093;52.788;6.940;2023-04-23T04:47:34;8.20;99.90
53208;DHT22;39093;52.788;6.940;2023-04-23T04:50:02;8.30;99.90
53208;DHT22;39093;52.788;6.940;2023-04-23T04:52:30;8.20;99.90
53208;DHT22;39093;52.788;6.940;2023-04-23T04:54:57;8.30;99.90
53208;DHT22;39093;52.788;6.940;2023-04-23T04:57:24;8.30;99.90
53208;DHT22;39093;52.788;6.940;2023-04-23T04:59:51;8.30;99.90
53208;DHT22;39093;52.788;6.940;2023-04-23T05:02:18;8.30;99.90
53208;DHT22;39093;52.788;6.940;2023-04-23T05:04:47;8.30;99.90
53208;DHT22;39093;52.788;6.940;2023-04-23T05:07:14;8.40;99.90
53208;DHT22;39093;52.788;6.940;2023-04-23T05:09:41;8.50;99.90
53208;DHT22;39093;52.788;6.940;2023-04-23T05:12:10;8.60;99.90
53208;DHT22;39093;52.788;6.940;2023-04-23T05:14:37;8.60;99.90
53208;DHT22;39093;52.788;6.940;2023-04-23T05:17:05;8.70;99.90
53208;DHT22;39093;52.788;6.940;2023-04-23T05:19:32;8.80;99.90
53208;DHT22;39093;52.788;6.940;2023-04-23T05:21:59;8.90;99.90
53208;DHT22;39093;52.788;6.940;2023-04-23T05:24:28;8.90;99.90
53208;DHT22;39093;52.788;6.940;2023-04-23T05:26:55;8.90;99.90
53208;DHT22;39093;52.788;6.940;2023-04-23T05:29:22;9.00;99.90
53208;DHT22;39093;52.788;6.940;2023-04-23T05:31:49;9.00;99.90
53208;DHT22;39093;52.788;6.940;2023-04-23T05:34:17;9.00;99.90
53208;DHT22;39093;52.788;6.940;2023-04-23T05:36:44;9.00;99.90
53208;DHT22;39093;52.788;6.940;2023-04-23T05:39:11;9.20;99.90
53208;DHT22;39093;52.788;6.940;2023-04-23T05:41:38;9.10;99.90
53208;DHT22;39093;52.788;6.940;2023-04-23T05:44:04;9.10;99.90
53208;DHT22;39093;52.788;6.940;2023-04-23T05:46:31;9.20;99.90
53208;DHT22;39093;52.788;6.940;2023-04-23T05:48:58;9.20;99.90
53208;DHT22;39093;52.788;6.940;2023-04-23T05:51:25;9.20;99.90
53208;DHT22;39093;52.788;6.940;2023-04-23T05:53:52;9.20;99.90
53208;DHT22;39093;52.788;6.940;2023-04-23T05:56:19;9.20;99.90
53208;DHT22;39093;52.788;6.940;2023-04-23T05:58:46;9.20;99.90
53208;DHT22;39093;52.788;6.940;2023-04-23T06:01:14;9.20;99.90
53208;DHT22;39093;52.788;6.940;2023-04-23T06:03:41;9.20;99.90
53208;DHT22;39093;52.788;6.940;2023-04-23T06:06:11;9.20;99.90
53208;DHT22;39093;52.788;6.940;2023-04-23T06:08:44;9.20;99.90
53208;DHT22;39093;52.788;6.940;2023-04-23T06:11:11;9.20;99.90
53208;DHT22;39093;52.788;6.940;2023-04-23T06:13:38;9.30;99.90
53208;DHT22;39093;52.788;6.940;2023-04-23T06:16:09;9.40;99.90
53208;DHT22;39093;52.788;6.940;2023-04-23T06:18:36;9.50;99.90
53208;DHT22;39093;52.788;6.940;2023-04-23T06:21:04;9.60;99.90
53208;DHT22;39093;52.788;6.940;2023-04-23T06:23:32;9.70;99.90
53208;DHT22;39093;52.788;6.940;2023-04-23T06:25:59;9.80;99.90
53208;DHT22;39093;52.788;6.940;2023-04-23T06:28:26;9.90;99.90
53208;DHT22;39093;52.788;6.940;2023-04-23T06:30:53;10.10;99.90
53208;DHT22;39093;52.788;6.940;2023-04-23T06:33:20;10.20;99.90
53208;DHT22;39093;52.788;6.940;2023-04-23T06:35:47;10.30;99.90
53208;DHT22;39093;52.788;6.940;2023-04-23T06:38:14;10.50;99.90
53208;DHT22;39093;52.788;6.940;2023-04-23T06:40:41;10.60;99.90
53208;DHT22;39093;52.788;6.940;2023-04-23T06:43:08;10.70;99.90
53208;DHT22;39093;52.788;6.940;2023-04-23T06:45:35;10.60;99.90
53208;DHT22;39093;52.788;6.940;2023-04-23T06:48:02;10.80;99.90
53208;DHT22;39093;52.788;6.940;2023-04-23T06:50:29;10.80;99.90
53208;DHT22;39093;52.788;6.940;2023-04-23T06:52:56;10.90;99.90
53208;DHT22;39093;52.788;6.940;2023-04-23T06:55:23;11.10;99.90
53208;DHT22;39093;52.788;6.940;2023-04-23T06:57:52;11.30;99.90
53208;DHT22;39093;52.788;6.940;2023-04-23T07:00:20;11.50;99.90
53208;DHT22;39093;52.788;6.940;2023-04-23T07:02:48;11.60;99.90
53208;DHT22;39093;52.788;6.940;2023-04-23T07:05:16;11.80;99.90
53208;DHT22;39093;52.788;6.940;2023-04-23T07:07:43;12.00;99.90
53208;DHT22;39093;52.788;6.940;2023-04-23T07:10:11;12.00;99.90
53208;DHT22;39093;52.788;6.940;2023-04-23T07:12:39;12.20;99.90
53208;DHT22;39093;52.788;6.940;2023-04-23T07:15:07;12.30;99.90
53208;DHT22;39093;52.788;6.940;2023-04-23T07:17:38;12.30;99.90
53208;DHT22;39093;52.788;6.940;2023-04-23T07:20:05;12.50;99.90
53208;DHT22;39093;52.788;6.940;2023-04-23T07:22:34;12.60;99.90
53208;DHT22;39093;52.788;6.940;2023-04-23T07:25:01;12.80;99.90
53208;DHT22;39093;52.788;6.940;2023-04-23T07:27:28;12.90;99.90
53208;DHT22;39093;52.788;6.940;2023-04-23T07:29:55;12.90;99.90
53208;DHT22;39093;52.788;6.940;2023-04-23T07:32:25;13.00;99.90
53208;DHT22;39093;52.788;6.940;2023-04-23T07:34:54;12.90;99.90
53208;DHT22;39093;52.788;6.940;2023-04-23T07:37:24;12.70;99.90
53208;DHT22;39093;52.788;6.940;2023-04-23T07:39:50;12.70;99.90
53208;DHT22;39093;52.788;6.940;2023-04-23T07:42:20;12.50;99.90
53208;DHT22;39093;52.788;6.940;2023-04-23T07:44:47;12.50;99.90
53208;DHT22;39093;52.788;6.940;2023-04-23T07:47:14;12.50;99.90
53208;DHT22;39093;52.788;6.940;2023-04-23T07:49:42;12.40;99.90
53208;DHT22;39093;52.788;6.940;2023-04-23T07:52:09;12.50;99.90
53208;DHT22;39093;52.788;6.940;2023-04-23T07:54:36;12.40;99.90
53208;DHT22;39093;52.788;6.940;2023-04-23T07:57:04;12.40;99.90
53208;DHT22;39093;52.788;6.940;2023-04-23T07:59:31;12.40;99.90
53208;DHT22;39093;52.788;6.940;2023-04-23T08:01:58;12.30;99.90
53208;DHT22;39093;52.788;6.940;2023-04-23T08:04:25;12.30;99.90
53208;DHT22;39093;52.788;6.940;2023-04-23T08:06:55;12.30;99.90
53208;DHT22;39093;52.788;6.940;2023-04-23T08:09:22;12.30;99.90
53208;DHT22;39093;52.788;6.940;2023-04-23T08:11:49;12.40;99.90
53208;DHT22;39093;52.788;6.940;2023-04-23T08:14:17;12.70;99.90
53208;DHT22;39093;52.788;6.940;2023-04-23T08:16:43;13.20;99.90
53208;DHT22;39093;52.788;6.940;2023-04-23T08:19:10;13.50;99.90
53208;DHT22;39093;52.788;6.940;2023-04-23T08:21:37;13.80;99.90
53208;DHT22;39093;52.788;6.940;2023-04-23T08:24:05;14.30;99.90
53208;DHT22;39093;52.788;6.940;2023-04-23T08:26:33;14.30;99.90
53208;DHT22;39093;52.788;6.940;2023-04-23T08:29:00;14.30;99.90
53208;DHT22;39093;52.788;6.940;2023-04-23T08:31:29;14.40;99.90
53208;DHT22;39093;52.788;6.940;2023-04-23T08:33:56;14.60;99.90
53208;DHT22;39093;52.788;6.940;2023-04-23T08:36:23;14.90;99.90
53208;DHT22;39093;52.788;6.940;2023-04-23T08:38:51;15.10;99.90
53208;DHT22;39093;52.788;6.940;2023-04-23T08:41:21;15.30;99.90
53208;DHT22;39093;52.788;6.940;2023-04-23T08:46:30;15.40;99.90
53208;DHT22;39093;52.788;6.940;2023-04-23T08:48:59;15.30;99.90
53208;DHT22;39093;52.788;6.940;2023-04-23T08:51:29;15.30;99.90
53208;DHT22;39093;52.788;6.940;2023-04-23T08:54:02;15.30;99.90
53208;DHT22;39093;52.788;6.940;2023-04-23T08:56:31;15.30;99.90
53208;DHT22;39093;52.788;6.940;2023-04-23T08:58:58;15.50;99.90
53208;DHT22;39093;52.788;6.940;2023-04-23T09:01:29;15.80;99.90
53208;DHT22;39093;52.788;6.940;2023-04-23T09:03:56;15.90;99.90
53208;DHT22;39093;52.788;6.940;2023-04-23T09:06:24;16.00;99.90
53208;DHT22;39093;52.788;6.940;2023-04-23T09:08:52;16.10;99.90
53208;DHT22;39093;52.788;6.940;2023-04-23T09:11:19;16.30;99.90
53208;DHT22;39093;52.788;6.940;2023-04-23T09:13:49;16.60;99.90
53208;DHT22;39093;52.788;6.940;2023-04-23T09:16:16;16.80;99.90
53208;DHT22;39093;52.788;6.940;2023-04-23T09:18:43;17.10;99.90
53208;DHT22;39093;52.788;6.940;2023-04-23T09:21:10;17.30;99.90
53208;DHT22;39093;52.788;6.940;2023-04-23T09:23:38;17.50;99.90
53208;DHT22;39093;52.788;6.940;2023-04-23T09:26:07;17.50;99.90
53208;DHT22;39093;52.788;6.940;2023-04-23T09:28:37;17.70;99.90
53208;DHT22;39093;52.788;6.940;2023-04-23T09:31:04;18.10;99.90
53208;DHT22;39093;52.788;6.940;2023-04-23T09:33:34;18.20;99.90
53208;DHT22;39093;52.788;6.940;2023-04-23T09:36:21;18.40;99.90
53208;DHT22;39093;52.788;6.940;2023-04-23T09:38:50;18.70;99.90
53208;DHT22;39093;52.788;6.940;2023-04-23T09:41:26;18.90;99.90
53208;DHT22;39093;52.788;6.940;2023-04-23T09:43:54;18.60;99.90
53208;DHT22;39093;52.788;6.940;2023-04-23T09:46:50;18.70;99.90
53208;DHT22;39093;52.788;6.940;2023-04-23T09:49:18;18.90;99.90
53208;DHT22;39093;52.788;6.940;2023-04-23T09:51:46;18.90;99.90
53208;DHT22;39093;52.788;6.940;2023-04-23T09:54:21;19.00;99.90
53208;DHT22;39093;52.788;6.940;2023-04-23T09:56:53;19.20;99.90
53208;DHT22;39093;52.788;6.940;2023-04-23T09:59:25;19.30;99.90
53208;DHT22;39093;52.788;6.940;2023-04-23T10:02:12;19.30;99.90
53208;DHT22;39093;52.788;6.940;2023-04-23T10:04:41;19.30;99.90
53208;DHT22;39093;52.788;6.940;2023-04-23T10:07:09;19.60;99.90
53208;DHT22;39093;52.788;6.940;2023-04-23T10:09:46;19.80;99.90
53208;DHT22;39093;52.788;6.940;2023-04-23T10:12:13;19.90;99.90
53208;DHT22;39093;52.788;6.940;2023-04-23T10:15:01;19.60;99.90
53208;DHT22;39093;52.788;6.940;2023-04-23T10:17:29;19.60;99.90
53208;DHT22;39093;52.788;6.940;2023-04-23T10:19:58;19.80;99.90
53208;DHT22;39093;52.788;6.940;2023-04-23T10:22:29;19.80;99.90
53208;DHT22;39093;52.788;6.940;2023-04-23T10:24:57;20.00;98.80
53208;DHT22;39093;52.788;6.940;2023-04-23T10:27:29;20.10;99.80
53208;DHT22;39093;52.788;6.940;2023-04-23T10:30:17;20.00;99.00
53208;DHT22;39093;52.788;6.940;2023-04-23T10:32:47;19.90;98.30
53208;DHT22;39093;52.788;6.940;2023-04-23T10:35:14;19.60;98.10
53208;DHT22;39093;52.788;6.940;2023-04-23T10:37:43;19.50;98.90
53208;DHT22;39093;52.788;6.940;2023-04-23T10:40:15;19.30;99.90
53208;DHT22;39093;52.788;6.940;2023-04-23T10:42:44;19.40;98.20
53208;DHT22;39093;52.788;6.940;2023-04-23T10:45:20;19.30;98.40
53208;DHT22;39093;52.788;6.940;2023-04-23T10:47:54;19.00;98.40
53208;DHT22;39093;52.788;6.940;2023-04-23T10:50:27;19.00;99.20
53208;DHT22;39093;52.788;6.940;2023-04-23T10:52:55;19.60;99.60
53208;DHT22;39093;52.788;6.940;2023-04-23T10:55:30;20.00;99.00
53208;DHT22;39093;52.788;6.940;2023-04-23T10:58:01;20.30;98.20
53208;DHT22;39093;52.788;6.940;2023-04-23T11:00:44;20.00;96.60
53208;DHT22;39093;52.788;6.940;2023-04-23T11:03:31;19.90;96.20
53208;DHT22;39093;52.788;6.940;2023-04-23T11:06:02;19.80;94.80
53208;DHT22;39093;52.788;6.940;2023-04-23T11:08:30;19.70;96.80
53208;DHT22;39093;52.788;6.940;2023-04-23T11:10:59;20.00;97.60
53208;DHT22;39093;52.788;6.940;2023-04-23T11:13:27;20.00;95.20
53208;DHT22;39093;52.788;6.940;2023-04-23T11:16:19;19.60;95.40
53208;DHT22;39093;52.788;6.940;2023-04-23T11:21:21;19.50;94.50
53208;DHT22;39093;52.788;6.940;2023-04-23T11:23:51;19.60;95.40
53208;DHT22;39093;52.788;6.940;2023-04-23T11:26:18;19.90;94.70
53208;DHT22;39093;52.788;6.940;2023-04-23T11:28:46;19.90;93.80
53208;DHT22;39093;52.788;6.940;2023-04-23T11:31:14;20.00;93.10
53208;DHT22;39093;52.788;6.940;2023-04-23T11:33:41;20.40;92.70
53208;DHT22;39093;52.788;6.940;2023-04-23T11:36:08;20.90;93.00
53208;DHT22;39093;52.788;6.940;2023-04-23T11:38:36;21.00;91.80
53208;DHT22;39093;52.788;6.940;2023-04-23T11:41:04;21.30;91.10
53208;DHT22;39093;52.788;6.940;2023-04-23T11:43:32;21.70;86.90
53208;DHT22;39093;52.788;6.940;2023-04-23T11:46:00;21.70;86.30
53208;DHT22;39093;52.788;6.940;2023-04-23T11:48:26;21.10;87.10
53208;DHT22;39093;52.788;6.940;2023-04-23T11:50:53;21.60;85.70
53208;DHT22;39093;52.788;6.940;2023-04-23T11:53:20;21.70;84.60
53208;DHT22;39093;52.788;6.940;2023-04-23T11:55:49;21.80;81.40
53208;DHT22;39093;52.788;6.940;2023-04-23T11:58:16;21.90;79.30
53208;DHT22;39093;52.788;6.940;2023-04-23T12:00:44;21.80;78.30
53208;DHT22;39093;52.788;6.940;2023-04-23T12:03:11;22.10;80.70
53208;DHT22;39093;52.788;6.940;2023-04-23T12:05:40;22.40;80.80
53208;DHT22;39093;52.788;6.940;2023-04-23T12:08:11;22.50;79.10
53208;DHT22;39093;52.788;6.940;2023-04-23T12:10:50;22.30;79.90
53208;DHT22;39093;52.788;6.940;2023-04-23T12:13:22;22.50;78.70
53208;DHT22;39093;52.788;6.940;2023-04-23T12:15:52;22.80;80.10
53208;DHT22;39093;52.788;6.940;2023-04-23T12:18:19;23.10;80.10
53208;DHT22;39093;52.788;6.940;2023-04-23T12:20:46;23.10;76.50
53208;DHT22;39093;52.788;6.940;2023-04-23T12:23:13;23.50;79.70
53208;DHT22;39093;52.788;6.940;2023-04-23T12:25:40;23.60;72.50
53208;DHT22;39093;52.788;6.940;2023-04-23T12:28:08;23.40;71.70
53208;DHT22;39093;52.788;6.940;2023-04-23T12:30:42;23.00;70.40
53208;DHT22;39093;52.788;6.940;2023-04-23T12:33:10;22.70;70.00
53208;DHT22;39093;52.788;6.940;2023-04-23T12:35:42;22.70;73.80
53208;DHT22;39093;52.788;6.940;2023-04-23T12:38:28;22.70;73.50
53208;DHT22;39093;52.788;6.940;2023-04-23T12:40:58;22.20;73.70
53208;DHT22;39093;52.788;6.940;2023-04-23T12:43:25;22.20;74.70
53208;DHT22;39093;52.788;6.940;2023-04-23T12:45:55;21.90;77.10
53208;DHT22;39093;52.788;6.940;2023-04-23T12:48:22;21.90;74.00
53208;DHT22;39093;52.788;6.940;2023-04-23T12:50:49;21.60;75.10
53208;DHT22;39093;52.788;6.940;2023-04-23T12:53:17;21.60;74.70
53208;DHT22;39093;52.788;6.940;2023-04-23T12:55:44;21.40;76.10
53208;DHT22;39093;52.788;6.940;2023-04-23T12:58:11;21.30;74.20
53208;DHT22;39093;52.788;6.940;2023-04-23T13:00:38;21.00;76.00
53208;DHT22;39093;52.788;6.940;2023-04-23T13:03:06;20.80;76.20
53208;DHT22;39093;52.788;6.940;2023-04-23T13:05:33;20.70;77.70
53208;DHT22;39093;52.788;6.940;2023-04-23T13:08:00;20.70;76.60
53208;DHT22;39093;52.788;6.940;2023-04-23T13:10:27;20.70;77.30
53208;DHT22;39093;52.788;6.940;2023-04-23T13:12:56;20.70;78.00
53208;DHT22;39093;52.788;6.940;2023-04-23T13:15:23;20.70;77.30
53208;DHT22;39093;52.788;6.940;2023-04-23T13:17:52;20.80;77.20
53208;DHT22;39093;52.788;6.940;2023-04-23T13:20:19;20.80;79.60
53208;DHT22;39093;52.788;6.940;2023-04-23T13:22:47;20.90;79.80
53208;DHT22;39093;52.788;6.940;2023-04-23T13:25:14;20.90;79.60
53208;DHT22;39093;52.788;6.940;2023-04-23T13:27:41;21.00;79.80
53208;DHT22;39093;52.788;6.940;2023-04-23T13:30:08;20.90;77.90
53208;DHT22;39093;52.788;6.940;2023-04-23T13:32:35;20.60;78.50
53208;DHT22;39093;52.788;6.940;2023-04-23T13:35:02;20.50;79.00
53208;DHT22;39093;52.788;6.940;2023-04-23T13:37:31;20.50;78.80
53208;DHT22;39093;52.788;6.940;2023-04-23T13:39:59;20.50;80.40
53208;DHT22;39093;52.788;6.940;2023-04-23T13:42:26;20.60;79.60
53208;DHT22;39093;52.788;6.940;2023-04-23T13:44:53;20.80;75.30
53208;DHT22;39093;52.788;6.940;2023-04-23T13:47:20;20.80;74.50
53208;DHT22;39093;52.788;6.940;2023-04-23T13:49:47;20.90;76.40
53208;DHT22;39093;52.788;6.940;2023-04-23T13:52:14;21.10;75.50
53208;DHT22;39093;52.788;6.940;2023-04-23T13:54:41;20.90;74.20
53208;DHT22;39093;52.788;6.940;2023-04-23T13:57:08;20.80;75.50
53208;DHT22;39093;52.788;6.940;2023-04-23T13:59:35;20.70;75.20
53208;DHT22;39093;52.788;6.940;2023-04-23T14:02:02;20.50;73.70
53208;DHT22;39093;52.788;6.940;2023-04-23T14:04:28;20.50;74.90
53208;DHT22;39093;52.788;6.940;2023-04-23T14:06:55;20.30;74.90
53208;DHT22;39093;52.788;6.940;2023-04-23T14:09:22;20.10;75.40
53208;DHT22;39093;52.788;6.940;2023-04-23T14:11:50;20.10;77.30
53208;DHT22;39093;52.788;6.940;2023-04-23T14:14:17;20.20;78.40
53208;DHT22;39093;52.788;6.940;2023-04-23T14:16:44;20.30;77.80
53208;DHT22;39093;52.788;6.940;2023-04-23T14:19:11;20.40;78.50
53208;DHT22;39093;52.788;6.940;2023-04-23T14:21:37;20.40;78.40
53208;DHT22;39093;52.788;6.940;2023-04-23T14:24:15;20.50;78.10
53208;DHT22;39093;52.788;6.940;2023-04-23T14:26:42;20.50;78.70
53208;DHT22;39093;52.788;6.940;2023-04-23T14:31:49;20.20;79.00
53208;DHT22;39093;52.788;6.940;2023-04-23T14:34:16;20.10;77.40
53208;DHT22;39093;52.788;6.940;2023-04-23T14:36:43;20.00;78.90
53208;DHT22;39093;52.788;6.940;2023-04-23T14:39:12;19.80;80.10
53208;DHT22;39093;52.788;6.940;2023-04-23T14:41:39;19.70;80.10
53208;DHT22;39093;52.788;6.940;2023-04-23T14:44:06;19.60;79.90
53208;DHT22;39093;52.788;6.940;2023-04-23T14:46:33;19.40;80.50
53208;DHT22;39093;52.788;6.940;2023-04-23T14:49:01;19.20;80.10
53208;DHT22;39093;52.788;6.940;2023-04-23T14:51:28;19.00;81.30
53208;DHT22;39093;52.788;6.940;2023-04-23T14:53:55;19.00;83.70
53208;DHT22;39093;52.788;6.940;2023-04-23T14:56:22;18.80;87.00
53208;DHT22;39093;52.788;6.940;2023-04-23T14:58:49;18.90;90.40
53208;DHT22;39093;52.788;6.940;2023-04-23T15:01:16;19.30;91.50
53208;DHT22;39093;52.788;6.940;2023-04-23T15:03:44;19.80;92.10
53208;DHT22;39093;52.788;6.940;2023-04-23T15:06:12;20.40;90.90
53208;DHT22;39093;52.788;6.940;2023-04-23T15:08:39;20.90;86.80
53208;DHT22;39093;52.788;6.940;2023-04-23T15:11:06;21.20;85.50
53208;DHT22;39093;52.788;6.940;2023-04-23T15:14:01;21.20;84.60
53208;DHT22;39093;52.788;6.940;2023-04-23T15:16:31;20.90;83.00
53208;DHT22;39093;52.788;6.940;2023-04-23T15:19:03;20.40;82.00
53208;DHT22;39093;52.788;6.940;2023-04-23T15:21:32;20.20;83.10
53208;DHT22;39093;52.788;6.940;2023-04-23T15:24:06;20.00;85.40
53208;DHT22;39093;52.788;6.940;2023-04-23T15:26:33;19.80;85.70
53208;DHT22;39093;52.788;6.940;2023-04-23T15:29:04;19.70;84.90
53208;DHT22;39093;52.788;6.940;2023-04-23T15:31:33;19.60;86.90
53208;DHT22;39093;52.788;6.940;2023-04-23T15:34:01;19.50;86.40
53208;DHT22;39093;52.788;6.940;2023-04-23T15:36:32;19.50;86.20
53208;DHT22;39093;52.788;6.940;2023-04-23T15:39:04;19.40;87.30
53208;DHT22;39093;52.788;6.940;2023-04-23T15:41:35;19.30;87.80
53208;DHT22;39093;52.788;6.940;2023-04-23T15:44:08;19.50;87.30
53208;DHT22;39093;52.788;6.940;2023-04-23T15:46:36;19.60;87.80
53208;DHT22;39093;52.788;6.940;2023-04-23T15:49:03;19.60;86.10
53208;DHT22;39093;52.788;6.940;2023-04-23T15:51:31;19.60;86.20
53208;DHT22;39093;52.788;6.940;2023-04-23T15:54:02;19.60;87.30